Terminal Aerodrome Forecast
Issued by NWS

Home | Current Version | Previous Version | Text Only | Print | Product List | Glossary On
Versions: 1 2 3 4 5 6 7 8 9 10 11 12 13
000
FTUS46 KLOX 291700
TAFPMD
TAF
KPMD 291735Z 2918/3018 VRB05KT P6SM SCT200
     FM292000 26008KT P6SM SCT200
     FM292200 25015G25KT P6SM SCT200
     FM300400 25015KT P6SM SCT200
     FM300900 25007KT P6SM BKN200
     FM301300 VRB05KT P6SM BKN200=

USA.gov is the U.S. government's official web portal to all federal, state and local government web resources and services.